sensor_id;sensor_type;location;lat;lon;timestamp;P1;durP1;ratioP1;P2;durP2;ratioP2
35540;SDS011;21650;48.840;9.162;2022-08-01T00:00:10;2.83;;;1.93;;
35540;SDS011;21650;48.840;9.162;2022-08-01T00:02:37;3.13;;;1.93;;
35540;SDS011;21650;48.840;9.162;2022-08-01T00:05:03;2.57;;;2.20;;
35540;SDS011;21650;48.840;9.162;2022-08-01T00:07:30;3.13;;;2.40;;
35540;SDS011;21650;48.840;9.162;2022-08-01T00:09:56;1.80;;;1.63;;
35540;SDS011;21650;48.840;9.162;2022-08-01T00:12:22;2.53;;;1.80;;
35540;SDS011;21650;48.840;9.162;2022-08-01T00:14:48;2.20;;;1.97;;
35540;SDS011;21650;48.840;9.162;2022-08-01T00:17:13;2.53;;;2.07;;
35540;SDS011;21650;48.840;9.162;2022-08-01T00:19:39;2.37;;;2.03;;
35540;SDS011;21650;48.840;9.162;2022-08-01T00:22:04;2.43;;;2.00;;
35540;SDS011;21650;48.840;9.162;2022-08-01T00:24:30;2.30;;;2.10;;
35540;SDS011;21650;48.840;9.162;2022-08-01T00:26:56;2.40;;;2.20;;
35540;SDS011;21650;48.840;9.162;2022-08-01T00:29:21;3.10;;;2.10;;
35540;SDS011;21650;48.840;9.162;2022-08-01T00:31:47;4.33;;;2.33;;
35540;SDS011;21650;48.840;9.162;2022-08-01T00:34:12;3.23;;;2.50;;
35540;SDS011;21650;48.840;9.162;2022-08-01T00:36:38;4.47;;;2.20;;
35540;SDS011;21650;48.840;9.162;2022-08-01T00:39:03;4.03;;;2.50;;
35540;SDS011;21650;48.840;9.162;2022-08-01T00:41:29;2.40;;;2.20;;
35540;SDS011;21650;48.840;9.162;2022-08-01T00:43:54;2.30;;;1.97;;
35540;SDS011;21650;48.840;9.162;2022-08-01T00:46:20;4.57;;;2.10;;
35540;SDS011;21650;48.840;9.162;2022-08-01T00:48:46;3.03;;;2.17;;
35540;SDS011;21650;48.840;9.162;2022-08-01T00:51:11;4.67;;;2.43;;
35540;SDS011;21650;48.840;9.162;2022-08-01T00:53:38;3.33;;;2.03;;
35540;SDS011;21650;48.840;9.162;2022-08-01T00:56:05;2.97;;;2.40;;
35540;SDS011;21650;48.840;9.162;2022-08-01T00:58:31;3.27;;;2.20;;
35540;SDS011;21650;48.840;9.162;2022-08-01T01:00:58;2.50;;;2.10;;
35540;SDS011;21650;48.840;9.162;2022-08-01T01:03:24;2.30;;;2.10;;
35540;SDS011;21650;48.840;9.162;2022-08-01T01:06:00;3.90;;;3.00;;
35540;SDS011;21650;48.840;9.162;2022-08-01T01:08:35;4.03;;;2.23;;
35540;SDS011;21650;48.840;9.162;2022-08-01T01:11:13;2.30;;;1.67;;
35540;SDS011;21650;48.840;9.162;2022-08-01T01:14:00;4.97;;;2.30;;
35540;SDS011;21650;48.840;9.162;2022-08-01T01:16:30;2.60;;;2.37;;
35540;SDS011;21650;48.840;9.162;2022-08-01T01:19:00;4.10;;;2.23;;
35540;SDS011;21650;48.840;9.162;2022-08-01T01:21:53;3.43;;;2.60;;
35540;SDS011;21650;48.840;9.162;2022-08-01T01:24:31;2.33;;;2.13;;
35540;SDS011;21650;48.840;9.162;2022-08-01T01:27:06;2.67;;;1.90;;
35540;SDS011;21650;48.840;9.162;2022-08-01T01:29:54;3.43;;;2.23;;
35540;SDS011;21650;48.840;9.162;2022-08-01T01:32:41;4.10;;;2.00;;
35540;SDS011;21650;48.840;9.162;2022-08-01T01:35:10;3.17;;;2.30;;
35540;SDS011;21650;48.840;9.162;2022-08-01T01:37:41;1.97;;;1.87;;
35540;SDS011;21650;48.840;9.162;2022-08-01T01:40:09;2.67;;;1.90;;
35540;SDS011;21650;48.840;9.162;2022-08-01T01:42:36;2.70;;;2.47;;
35540;SDS011;21650;48.840;9.162;2022-08-01T01:45:04;2.40;;;2.20;;
35540;SDS011;21650;48.840;9.162;2022-08-01T01:47:31;2.47;;;2.23;;
35540;SDS011;21650;48.840;9.162;2022-08-01T01:49:58;3.17;;;2.10;;
35540;SDS011;21650;48.840;9.162;2022-08-01T01:52:26;2.30;;;2.10;;
35540;SDS011;21650;48.840;9.162;2022-08-01T01:54:54;4.87;;;2.23;;
35540;SDS011;21650;48.840;9.162;2022-08-01T01:57:21;2.47;;;2.23;;
35540;SDS011;21650;48.840;9.162;2022-08-01T01:59:48;3.60;;;2.53;;
35540;SDS011;21650;48.840;9.162;2022-08-01T02:02:15;3.13;;;2.63;;
35540;SDS011;21650;48.840;9.162;2022-08-01T02:04:43;3.07;;;2.43;;
35540;SDS011;21650;48.840;9.162;2022-08-01T02:07:12;2.37;;;2.17;;
35540;SDS011;21650;48.840;9.162;2022-08-01T02:09:41;2.87;;;2.30;;
35540;SDS011;21650;48.840;9.162;2022-08-01T02:12:09;3.20;;;2.27;;
35540;SDS011;21650;48.840;9.162;2022-08-01T02:14:37;3.23;;;2.03;;
35540;SDS011;21650;48.840;9.162;2022-08-01T02:17:05;3.77;;;2.93;;
35540;SDS011;21650;48.840;9.162;2022-08-01T02:19:34;4.20;;;2.00;;
35540;SDS011;21650;48.840;9.162;2022-08-01T02:22:01;4.50;;;1.93;;
35540;SDS011;21650;48.840;9.162;2022-08-01T02:27:14;4.07;;;2.47;;
35540;SDS011;21650;48.840;9.162;2022-08-01T02:29:58;3.10;;;2.43;;
35540;SDS011;21650;48.840;9.162;2022-08-01T02:35:02;3.03;;;2.30;;
35540;SDS011;21650;48.840;9.162;2022-08-01T02:37:33;3.60;;;2.43;;
35540;SDS011;21650;48.840;9.162;2022-08-01T02:40:01;1.80;;;1.70;;
35540;SDS011;21650;48.840;9.162;2022-08-01T02:42:27;3.27;;;2.30;;
35540;SDS011;21650;48.840;9.162;2022-08-01T02:44:54;3.33;;;2.47;;
35540;SDS011;21650;48.840;9.162;2022-08-01T02:47:21;2.83;;;2.13;;
35540;SDS011;21650;48.840;9.162;2022-08-01T02:49:48;2.80;;;2.30;;
35540;SDS011;21650;48.840;9.162;2022-08-01T02:52:17;3.70;;;2.13;;
35540;SDS011;21650;48.840;9.162;2022-08-01T02:54:45;3.03;;;1.97;;
35540;SDS011;21650;48.840;9.162;2022-08-01T02:57:13;2.73;;;2.53;;
35540;SDS011;21650;48.840;9.162;2022-08-01T02:59:39;4.10;;;2.47;;
35540;SDS011;21650;48.840;9.162;2022-08-01T03:02:06;3.50;;;2.77;;
35540;SDS011;21650;48.840;9.162;2022-08-01T03:04:33;2.90;;;2.27;;
35540;SDS011;21650;48.840;9.162;2022-08-01T03:07:02;3.53;;;2.20;;
35540;SDS011;21650;48.840;9.162;2022-08-01T03:09:30;3.07;;;2.33;;
35540;SDS011;21650;48.840;9.162;2022-08-01T03:11:59;4.13;;;2.20;;
35540;SDS011;21650;48.840;9.162;2022-08-01T03:14:29;4.00;;;2.30;;
35540;SDS011;21650;48.840;9.162;2022-08-01T03:16:58;3.70;;;2.50;;
35540;SDS011;21650;48.840;9.162;2022-08-01T03:19:25;3.53;;;2.57;;
35540;SDS011;21650;48.840;9.162;2022-08-01T03:21:52;6.27;;;2.60;;
35540;SDS011;21650;48.840;9.162;2022-08-01T03:24:20;3.00;;;2.23;;
35540;SDS011;21650;48.840;9.162;2022-08-01T03:26:48;2.07;;;1.87;;
35540;SDS011;21650;48.840;9.162;2022-08-01T03:29:16;3.87;;;2.17;;
35540;SDS011;21650;48.840;9.162;2022-08-01T03:31:46;2.40;;;2.20;;
35540;SDS011;21650;48.840;9.162;2022-08-01T03:34:13;2.80;;;2.40;;
35540;SDS011;21650;48.840;9.162;2022-08-01T03:36:46;2.43;;;2.10;;
35540;SDS011;21650;48.840;9.162;2022-08-01T03:39:36;2.47;;;2.13;;
35540;SDS011;21650;48.840;9.162;2022-08-01T03:42:12;3.73;;;2.33;;
35540;SDS011;21650;48.840;9.162;2022-08-01T03:44:45;3.97;;;2.27;;
35540;SDS011;21650;48.840;9.162;2022-08-01T03:47:19;3.10;;;1.90;;
35540;SDS011;21650;48.840;9.162;2022-08-01T03:49:50;3.30;;;2.20;;
35540;SDS011;21650;48.840;9.162;2022-08-01T03:52:17;6.63;;;2.43;;
35540;SDS011;21650;48.840;9.162;2022-08-01T03:54:46;2.83;;;2.50;;
35540;SDS011;21650;48.840;9.162;2022-08-01T03:57:14;2.80;;;2.40;;
35540;SDS011;21650;48.840;9.162;2022-08-01T03:59:40;3.53;;;2.40;;
35540;SDS011;21650;48.840;9.162;2022-08-01T04:02:07;2.60;;;2.40;;
35540;SDS011;21650;48.840;9.162;2022-08-01T04:04:33;3.07;;;2.20;;
35540;SDS011;21650;48.840;9.162;2022-08-01T04:06:59;3.60;;;2.20;;
35540;SDS011;21650;48.840;9.162;2022-08-01T04:09:29;2.57;;;2.30;;
35540;SDS011;21650;48.840;9.162;2022-08-01T04:11:56;2.57;;;2.37;;
35540;SDS011;21650;48.840;9.162;2022-08-01T04:14:24;3.30;;;2.40;;
35540;SDS011;21650;48.840;9.162;2022-08-01T04:16:49;3.17;;;2.47;;
35540;SDS011;21650;48.840;9.162;2022-08-01T04:19:15;3.20;;;2.90;;
35540;SDS011;21650;48.840;9.162;2022-08-01T04:21:40;3.20;;;2.17;;
35540;SDS011;21650;48.840;9.162;2022-08-01T04:24:08;3.13;;;2.63;;
35540;SDS011;21650;48.840;9.162;2022-08-01T04:26:38;4.73;;;2.40;;
35540;SDS011;21650;48.840;9.162;2022-08-01T04:29:06;3.60;;;2.13;;
35540;SDS011;21650;48.840;9.162;2022-08-01T04:31:34;4.07;;;2.47;;
35540;SDS011;21650;48.840;9.162;2022-08-01T04:34:01;4.33;;;2.40;;
35540;SDS011;21650;48.840;9.162;2022-08-01T04:36:30;2.57;;;2.23;;
35540;SDS011;21650;48.840;9.162;2022-08-01T04:39:00;2.63;;;2.03;;
35540;SDS011;21650;48.840;9.162;2022-08-01T04:41:26;3.23;;;2.53;;
35540;SDS011;21650;48.840;9.162;2022-08-01T04:43:54;3.87;;;2.30;;
35540;SDS011;21650;48.840;9.162;2022-08-01T04:46:24;2.53;;;2.13;;
35540;SDS011;21650;48.840;9.162;2022-08-01T04:48:50;3.73;;;3.00;;
35540;SDS011;21650;48.840;9.162;2022-08-01T04:51:16;2.73;;;2.10;;
35540;SDS011;21650;48.840;9.162;2022-08-01T04:53:43;4.17;;;2.30;;
35540;SDS011;21650;48.840;9.162;2022-08-01T04:56:10;4.00;;;2.60;;
35540;SDS011;21650;48.840;9.162;2022-08-01T04:58:38;3.73;;;2.47;;
35540;SDS011;21650;48.840;9.162;2022-08-01T05:01:04;4.13;;;2.63;;
35540;SDS011;21650;48.840;9.162;2022-08-01T05:03:30;4.10;;;2.60;;
35540;SDS011;21650;48.840;9.162;2022-08-01T05:05:56;4.27;;;2.47;;
35540;SDS011;21650;48.840;9.162;2022-08-01T05:08:21;4.03;;;2.33;;
35540;SDS011;21650;48.840;9.162;2022-08-01T05:10:47;4.70;;;2.40;;
35540;SDS011;21650;48.840;9.162;2022-08-01T05:13:12;2.17;;;1.97;;
35540;SDS011;21650;48.840;9.162;2022-08-01T05:15:38;3.03;;;2.40;;
35540;SDS011;21650;48.840;9.162;2022-08-01T05:18:03;2.90;;;2.13;;
35540;SDS011;21650;48.840;9.162;2022-08-01T05:20:29;3.97;;;2.17;;
35540;SDS011;21650;48.840;9.162;2022-08-01T05:22:55;3.13;;;2.03;;
35540;SDS011;21650;48.840;9.162;2022-08-01T05:25:20;2.90;;;2.07;;
35540;SDS011;21650;48.840;9.162;2022-08-01T05:27:46;4.93;;;2.10;;
35540;SDS011;21650;48.840;9.162;2022-08-01T05:30:12;2.07;;;1.87;;
35540;SDS011;21650;48.840;9.162;2022-08-01T05:32:37;4.67;;;1.77;;
35540;SDS011;21650;48.840;9.162;2022-08-01T05:35:03;2.70;;;1.80;;
35540;SDS011;21650;48.840;9.162;2022-08-01T05:37:29;4.07;;;1.80;;
35540;SDS011;21650;48.840;9.162;2022-08-01T05:39:55;2.13;;;1.70;;
35540;SDS011;21650;48.840;9.162;2022-08-01T05:42:20;4.23;;;1.97;;
35540;SDS011;21650;48.840;9.162;2022-08-01T05:44:46;1.60;;;1.43;;
35540;SDS011;21650;48.840;9.162;2022-08-01T05:47:13;2.17;;;1.50;;
35540;SDS011;21650;48.840;9.162;2022-08-01T05:49:38;3.40;;;1.80;;
35540;SDS011;21650;48.840;9.162;2022-08-01T05:52:04;2.93;;;1.70;;
35540;SDS011;21650;48.840;9.162;2022-08-01T05:54:30;3.50;;;1.80;;
35540;SDS011;21650;48.840;9.162;2022-08-01T05:56:55;2.10;;;1.90;;
35540;SDS011;21650;48.840;9.162;2022-08-01T05:59:24;3.27;;;1.50;;
35540;SDS011;21650;48.840;9.162;2022-08-01T06:01:50;1.97;;;1.60;;
35540;SDS011;21650;48.840;9.162;2022-08-01T06:04:16;3.57;;;1.60;;
35540;SDS011;21650;48.840;9.162;2022-08-01T06:06:41;5.20;;;1.80;;
35540;SDS011;21650;48.840;9.162;2022-08-01T06:09:07;7.20;;;2.10;;
35540;SDS011;21650;48.840;9.162;2022-08-01T06:11:32;7.73;;;2.97;;
35540;SDS011;21650;48.840;9.162;2022-08-01T06:13:58;3.00;;;1.53;;
35540;SDS011;21650;48.840;9.162;2022-08-01T06:16:23;3.13;;;1.80;;
35540;SDS011;21650;48.840;9.162;2022-08-01T06:18:49;1.97;;;1.40;;
35540;SDS011;21650;48.840;9.162;2022-08-01T06:21:14;2.30;;;1.27;;
35540;SDS011;21650;48.840;9.162;2022-08-01T06:23:40;2.77;;;1.80;;
35540;SDS011;21650;48.840;9.162;2022-08-01T06:26:07;2.13;;;1.73;;
35540;SDS011;21650;48.840;9.162;2022-08-01T06:28:32;4.37;;;1.87;;
35540;SDS011;21650;48.840;9.162;2022-08-01T06:30:58;2.23;;;1.60;;
35540;SDS011;21650;48.840;9.162;2022-08-01T06:33:24;3.53;;;1.87;;
35540;SDS011;21650;48.840;9.162;2022-08-01T06:35:50;2.97;;;1.57;;
35540;SDS011;21650;48.840;9.162;2022-08-01T06:38:15;1.20;;;1.10;;
35540;SDS011;21650;48.840;9.162;2022-08-01T06:40:41;3.83;;;1.23;;
35540;SDS011;21650;48.840;9.162;2022-08-01T06:43:07;3.50;;;1.87;;
35540;SDS011;21650;48.840;9.162;2022-08-01T06:45:32;1.20;;;1.10;;
35540;SDS011;21650;48.840;9.162;2022-08-01T06:47:58;1.57;;;1.13;;
35540;SDS011;21650;48.840;9.162;2022-08-01T06:50:23;1.13;;;1.03;;
35540;SDS011;21650;48.840;9.162;2022-08-01T06:52:49;1.23;;;1.03;;
35540;SDS011;21650;48.840;9.162;2022-08-01T06:55:15;1.43;;;1.17;;
35540;SDS011;21650;48.840;9.162;2022-08-01T06:57:50;2.13;;;1.37;;
35540;SDS011;21650;48.840;9.162;2022-08-01T07:00:17;2.90;;;1.50;;
35540;SDS011;21650;48.840;9.162;2022-08-01T07:02:46;3.23;;;1.27;;
35540;SDS011;21650;48.840;9.162;2022-08-01T07:05:12;1.50;;;1.37;;
35540;SDS011;21650;48.840;9.162;2022-08-01T07:07:38;1.37;;;1.13;;
35540;SDS011;21650;48.840;9.162;2022-08-01T07:10:04;1.50;;;1.17;;
35540;SDS011;21650;48.840;9.162;2022-08-01T07:12:30;2.67;;;1.40;;
35540;SDS011;21650;48.840;9.162;2022-08-01T07:14:55;1.80;;;1.33;;
35540;SDS011;21650;48.840;9.162;2022-08-01T07:17:21;1.53;;;1.20;;
35540;SDS011;21650;48.840;9.162;2022-08-01T07:19:47;3.23;;;1.30;;
35540;SDS011;21650;48.840;9.162;2022-08-01T07:22:12;2.00;;;1.20;;
35540;SDS011;21650;48.840;9.162;2022-08-01T07:24:39;2.33;;;1.43;;
35540;SDS011;21650;48.840;9.162;2022-08-01T07:27:05;2.23;;;1.13;;
35540;SDS011;21650;48.840;9.162;2022-08-01T07:29:30;1.53;;;1.10;;
35540;SDS011;21650;48.840;9.162;2022-08-01T07:31:56;1.50;;;1.40;;
35540;SDS011;21650;48.840;9.162;2022-08-01T07:34:23;4.30;;;1.40;;
35540;SDS011;21650;48.840;9.162;2022-08-01T07:36:50;1.70;;;1.43;;
35540;SDS011;21650;48.840;9.162;2022-08-01T07:39:16;5.63;;;1.13;;
35540;SDS011;21650;48.840;9.162;2022-08-01T07:41:42;3.03;;;1.20;;
35540;SDS011;21650;48.840;9.162;2022-08-01T07:44:07;1.97;;;1.47;;
35540;SDS011;21650;48.840;9.162;2022-08-01T07:46:33;1.73;;;1.43;;
35540;SDS011;21650;48.840;9.162;2022-08-01T07:48:59;2.70;;;1.50;;
35540;SDS011;21650;48.840;9.162;2022-08-01T07:51:24;2.53;;;1.20;;
35540;SDS011;21650;48.840;9.162;2022-08-01T07:53:50;2.90;;;1.40;;
35540;SDS011;21650;48.840;9.162;2022-08-01T07:56:15;2.00;;;1.33;;
35540;SDS011;21650;48.840;9.162;2022-08-01T07:58:41;1.63;;;1.27;;
35540;SDS011;21650;48.840;9.162;2022-08-01T08:01:06;3.27;;;1.60;;
35540;SDS011;21650;48.840;9.162;2022-08-01T08:03:32;4.43;;;1.87;;
35540;SDS011;21650;48.840;9.162;2022-08-01T08:05:57;2.63;;;1.37;;
35540;SDS011;21650;48.840;9.162;2022-08-01T08:08:23;3.50;;;1.20;;
35540;SDS011;21650;48.840;9.162;2022-08-01T08:10:49;2.20;;;1.27;;
35540;SDS011;21650;48.840;9.162;2022-08-01T08:13:14;2.20;;;1.57;;
35540;SDS011;21650;48.840;9.162;2022-08-01T08:15:40;2.37;;;1.53;;
35540;SDS011;21650;48.840;9.162;2022-08-01T08:18:05;1.37;;;1.10;;
35540;SDS011;21650;48.840;9.162;2022-08-01T08:20:31;6.03;;;1.57;;
35540;SDS011;21650;48.840;9.162;2022-08-01T08:22:56;2.40;;;1.40;;
35540;SDS011;21650;48.840;9.162;2022-08-01T08:25:25;5.23;;;1.53;;
35540;SDS011;21650;48.840;9.162;2022-08-01T08:27:51;1.67;;;1.40;;
35540;SDS011;21650;48.840;9.162;2022-08-01T08:30:17;2.30;;;1.67;;
35540;SDS011;21650;48.840;9.162;2022-08-01T08:32:43;2.60;;;1.33;;
35540;SDS011;21650;48.840;9.162;2022-08-01T08:35:09;2.53;;;1.33;;
35540;SDS011;21650;48.840;9.162;2022-08-01T08:37:35;1.70;;;1.43;;
35540;SDS011;21650;48.840;9.162;2022-08-01T08:40:01;2.57;;;2.00;;
35540;SDS011;21650;48.840;9.162;2022-08-01T08:42:28;2.10;;;1.73;;
35540;SDS011;21650;48.840;9.162;2022-08-01T08:44:53;3.90;;;1.43;;
35540;SDS011;21650;48.840;9.162;2022-08-01T08:47:20;3.37;;;1.70;;
35540;SDS011;21650;48.840;9.162;2022-08-01T08:49:48;2.03;;;1.73;;
35540;SDS011;21650;48.840;9.162;2022-08-01T08:52:21;6.10;;;2.33;;
35540;SDS011;21650;48.840;9.162;2022-08-01T08:54:48;3.10;;;1.80;;
35540;SDS011;21650;48.840;9.162;2022-08-01T08:57:15;1.97;;;1.50;;
35540;SDS011;21650;48.840;9.162;2022-08-01T08:59:44;2.27;;;2.07;;
35540;SDS011;21650;48.840;9.162;2022-08-01T09:02:10;2.80;;;1.67;;
35540;SDS011;21650;48.840;9.162;2022-08-01T09:04:37;2.87;;;1.87;;
35540;SDS011;21650;48.840;9.162;2022-08-01T09:07:04;2.20;;;2.00;;
35540;SDS011;21650;48.840;9.162;2022-08-01T09:09:30;2.23;;;1.70;;
35540;SDS011;21650;48.840;9.162;2022-08-01T09:11:56;2.17;;;1.67;;
35540;SDS011;21650;48.840;9.162;2022-08-01T09:14:23;7.80;;;1.90;;
35540;SDS011;21650;48.840;9.162;2022-08-01T09:17:02;3.47;;;1.77;;
35540;SDS011;21650;48.840;9.162;2022-08-01T09:19:37;4.53;;;2.10;;
35540;SDS011;21650;48.840;9.162;2022-08-01T09:22:05;5.30;;;2.43;;
35540;SDS011;21650;48.840;9.162;2022-08-01T09:24:33;2.73;;;1.90;;
35540;SDS011;21650;48.840;9.162;2022-08-01T09:27:00;4.07;;;2.37;;
35540;SDS011;21650;48.840;9.162;2022-08-01T09:29:39;3.73;;;2.20;;
35540;SDS011;21650;48.840;9.162;2022-08-01T09:32:05;5.87;;;2.57;;
35540;SDS011;21650;48.840;9.162;2022-08-01T09:34:31;4.63;;;2.57;;
35540;SDS011;21650;48.840;9.162;2022-08-01T09:36:58;6.83;;;3.07;;
35540;SDS011;21650;48.840;9.162;2022-08-01T09:39:28;7.93;;;3.30;;
35540;SDS011;21650;48.840;9.162;2022-08-01T09:41:56;4.40;;;3.00;;
35540;SDS011;21650;48.840;9.162;2022-08-01T09:44:40;5.53;;;3.03;;
35540;SDS011;21650;48.840;9.162;2022-08-01T09:47:07;5.50;;;2.87;;
35540;SDS011;21650;48.840;9.162;2022-08-01T09:49:34;5.13;;;3.67;;
35540;SDS011;21650;48.840;9.162;2022-08-01T09:54:51;4.53;;;3.13;;
35540;SDS011;21650;48.840;9.162;2022-08-01T09:57:21;4.87;;;3.30;;
35540;SDS011;21650;48.840;9.162;2022-08-01T09:59:48;3.70;;;3.37;;
35540;SDS011;21650;48.840;9.162;2022-08-01T10:02:34;4.35;;;3.28;;
35540;SDS011;21650;48.840;9.162;2022-08-01T10:05:03;4.57;;;3.20;;
35540;SDS011;21650;48.840;9.162;2022-08-01T10:07:31;5.30;;;2.90;;
35540;SDS011;21650;48.840;9.162;2022-08-01T10:10:08;3.50;;;3.05;;
35540;SDS011;21650;48.840;9.162;2022-08-01T10:12:38;5.55;;;2.90;;
35540;SDS011;21650;48.840;9.162;2022-08-01T10:15:05;3.38;;;2.60;;
35540;SDS011;21650;48.840;9.162;2022-08-01T10:17:31;3.50;;;2.20;;
35540;SDS011;21650;48.840;9.162;2022-08-01T10:19:59;2.00;;;1.80;;
35540;SDS011;21650;48.840;9.162;2022-08-01T10:22:27;5.60;;;2.22;;
35540;SDS011;21650;48.840;9.162;2022-08-01T10:24:55;3.38;;;1.92;;
35540;SDS011;21650;48.840;9.162;2022-08-01T10:27:22;2.88;;;2.20;;
35540;SDS011;21650;48.840;9.162;2022-08-01T10:29:56;3.97;;;1.95;;
35540;SDS011;21650;48.840;9.162;2022-08-01T10:32:30;3.75;;;2.05;;
35540;SDS011;21650;48.840;9.162;2022-08-01T10:34:58;4.72;;;1.95;;
35540;SDS011;21650;48.840;9.162;2022-08-01T10:37:25;3.42;;;1.52;;
35540;SDS011;21650;48.840;9.162;2022-08-01T10:39:51;2.10;;;1.85;;
35540;SDS011;21650;48.840;9.162;2022-08-01T10:42:18;2.35;;;1.65;;
35540;SDS011;21650;48.840;9.162;2022-08-01T10:44:44;3.65;;;2.03;;
35540;SDS011;21650;48.840;9.162;2022-08-01T10:47:13;3.60;;;2.00;;
35540;SDS011;21650;48.840;9.162;2022-08-01T10:49:47;1.40;;;1.30;;
35540;SDS011;21650;48.840;9.162;2022-08-01T10:52:27;4.63;;;2.00;;
35540;SDS011;21650;48.840;9.162;2022-08-01T10:55:03;3.00;;;2.80;;
35540;SDS011;21650;48.840;9.162;2022-08-01T10:57:43;3.20;;;2.90;;
35540;SDS011;21650;48.840;9.162;2022-08-01T11:00:19;2.20;;;2.03;;
35540;SDS011;21650;48.840;9.162;2022-08-01T11:02:56;3.00;;;2.67;;
35540;SDS011;21650;48.840;9.162;2022-08-01T11:05:27;2.10;;;1.85;;
35540;SDS011;21650;48.840;9.162;2022-08-01T11:07:55;2.30;;;2.10;;
35540;SDS011;21650;48.840;9.162;2022-08-01T11:10:39;4.03;;;2.08;;
35540;SDS011;21650;48.840;9.162;2022-08-01T11:13:07;2.15;;;1.98;;
35540;SDS011;21650;48.840;9.162;2022-08-01T11:15:34;2.22;;;2.03;;
35540;SDS011;21650;48.840;9.162;2022-08-01T11:18:01;3.70;;;1.95;;
35540;SDS011;21650;48.840;9.162;2022-08-01T11:20:29;2.13;;;1.80;;
35540;SDS011;21650;48.840;9.162;2022-08-01T11:30:45;2.22;;;2.03;;
35540;SDS011;21650;48.840;9.162;2022-08-01T11:33:12;2.45;;;2.20;;
35540;SDS011;21650;48.840;9.162;2022-08-01T11:38:36;2.20;;;1.90;;
35540;SDS011;21650;48.840;9.162;2022-08-01T11:41:09;3.38;;;2.35;;
35540;SDS011;21650;48.840;9.162;2022-08-01T11:54:55;2.28;;;2.08;;
35540;SDS011;21650;48.840;9.162;2022-08-01T11:57:23;2.45;;;2.25;;
35540;SDS011;21650;48.840;9.162;2022-08-01T11:59:52;4.15;;;2.63;;
35540;SDS011;21650;48.840;9.162;2022-08-01T12:02:29;2.72;;;2.20;;
35540;SDS011;21650;48.840;9.162;2022-08-01T12:04:57;2.40;;;2.20;;
35540;SDS011;21650;48.840;9.162;2022-08-01T12:07:30;3.05;;;1.98;;
35540;SDS011;21650;48.840;9.162;2022-08-01T12:10:07;4.93;;;2.30;;
35540;SDS011;21650;48.840;9.162;2022-08-01T12:12:44;4.47;;;2.72;;
35540;SDS011;21650;48.840;9.162;2022-08-01T12:15:11;3.60;;;2.05;;
35540;SDS011;21650;48.840;9.162;2022-08-01T12:17:38;2.97;;;1.60;;
35540;SDS011;21650;48.840;9.162;2022-08-01T12:20:07;2.35;;;2.10;;
35540;SDS011;21650;48.840;9.162;2022-08-01T12:22:35;2.63;;;1.65;;
35540;SDS011;21650;48.840;9.162;2022-08-01T12:25:10;2.58;;;2.05;;
35540;SDS011;21650;48.840;9.162;2022-08-01T12:27:38;2.35;;;1.92;;
35540;SDS011;21650;48.840;9.162;2022-08-01T12:30:06;5.68;;;2.00;;
35540;SDS011;21650;48.840;9.162;2022-08-01T12:32:34;2.25;;;1.90;;
35540;SDS011;21650;48.840;9.162;2022-08-01T12:35:05;2.65;;;1.85;;
35540;SDS011;21650;48.840;9.162;2022-08-01T12:37:38;3.15;;;2.17;;
35540;SDS011;21650;48.840;9.162;2022-08-01T12:43:06;2.13;;;1.92;;
35540;SDS011;21650;48.840;9.162;2022-08-01T12:45:42;2.55;;;1.92;;
35540;SDS011;21650;48.840;9.162;2022-08-01T12:48:09;5.93;;;2.03;;
35540;SDS011;21650;48.840;9.162;2022-08-01T12:50:41;2.80;;;2.00;;
35540;SDS011;21650;48.840;9.162;2022-08-01T12:53:11;4.53;;;2.20;;
35540;SDS011;21650;48.840;9.162;2022-08-01T12:55:46;2.45;;;1.80;;
35540;SDS011;21650;48.840;9.162;2022-08-01T12:58:13;3.13;;;1.92;;
35540;SDS011;21650;48.840;9.162;2022-08-01T13:00:41;3.47;;;1.80;;
35540;SDS011;21650;48.840;9.162;2022-08-01T13:03:14;4.63;;;2.00;;
35540;SDS011;21650;48.840;9.162;2022-08-01T13:08:13;2.22;;;1.80;;
35540;SDS011;21650;48.840;9.162;2022-08-01T13:10:40;3.83;;;2.00;;
35540;SDS011;21650;48.840;9.162;2022-08-01T13:13:06;2.63;;;1.80;;
35540;SDS011;21650;48.840;9.162;2022-08-01T13:15:33;2.55;;;2.08;;
35540;SDS011;21650;48.840;9.162;2022-08-01T13:18:01;3.10;;;1.73;;
35540;SDS011;21650;48.840;9.162;2022-08-01T13:20:45;6.55;;;1.80;;
35540;SDS011;21650;48.840;9.162;2022-08-01T13:23:20;4.30;;;1.77;;
35540;SDS011;21650;48.840;9.162;2022-08-01T13:28:19;1.50;;;1.20;;
35540;SDS011;21650;48.840;9.162;2022-08-01T13:33:25;2.50;;;1.55;;
35540;SDS011;21650;48.840;9.162;2022-08-01T13:35:52;3.53;;;1.70;;
35540;SDS011;21650;48.840;9.162;2022-08-01T13:38:19;1.42;;;1.33;;
35540;SDS011;21650;48.840;9.162;2022-08-01T13:40:44;1.92;;;1.70;;
35540;SDS011;21650;48.840;9.162;2022-08-01T13:43:10;2.53;;;1.30;;
35540;SDS011;21650;48.840;9.162;2022-08-01T13:45:36;2.33;;;1.20;;
35540;SDS011;21650;48.840;9.162;2022-08-01T13:48:03;5.93;;;1.42;;
35540;SDS011;21650;48.840;9.162;2022-08-01T13:50:29;2.13;;;1.90;;
35540;SDS011;21650;48.840;9.162;2022-08-01T13:52:54;1.85;;;1.65;;
35540;SDS011;21650;48.840;9.162;2022-08-01T13:55:20;2.25;;;1.55;;
35540;SDS011;21650;48.840;9.162;2022-08-01T13:57:45;2.80;;;1.80;;
35540;SDS011;21650;48.840;9.162;2022-08-01T14:00:11;2.92;;;1.90;;
35540;SDS011;21650;48.840;9.162;2022-08-01T14:02:37;1.80;;;1.45;;
35540;SDS011;21650;48.840;9.162;2022-08-01T14:05:02;2.08;;;1.73;;
35540;SDS011;21650;48.840;9.162;2022-08-01T14:07:28;1.50;;;1.40;;
35540;SDS011;21650;48.840;9.162;2022-08-01T14:09:54;2.00;;;1.67;;
35540;SDS011;21650;48.840;9.162;2022-08-01T14:12:19;4.78;;;1.88;;
35540;SDS011;21650;48.840;9.162;2022-08-01T14:14:45;1.63;;;1.33;;
35540;SDS011;21650;48.840;9.162;2022-08-01T14:17:10;2.42;;;2.10;;
35540;SDS011;21650;48.840;9.162;2022-08-01T14:19:36;2.22;;;1.50;;
35540;SDS011;21650;48.840;9.162;2022-08-01T14:22:02;3.00;;;1.63;;
35540;SDS011;21650;48.840;9.162;2022-08-01T14:24:27;3.00;;;1.60;;
35540;SDS011;21650;48.840;9.162;2022-08-01T14:26:53;3.28;;;1.58;;
35540;SDS011;21650;48.840;9.162;2022-08-01T14:29:19;3.88;;;1.70;;
35540;SDS011;21650;48.840;9.162;2022-08-01T14:31:44;5.35;;;2.15;;
35540;SDS011;21650;48.840;9.162;2022-08-01T14:34:10;4.70;;;1.67;;
35540;SDS011;21650;48.840;9.162;2022-08-01T14:36:37;1.80;;;1.60;;
35540;SDS011;21650;48.840;9.162;2022-08-01T14:39:03;2.42;;;1.70;;
35540;SDS011;21650;48.840;9.162;2022-08-01T14:41:28;2.85;;;1.58;;
35540;SDS011;21650;48.840;9.162;2022-08-01T14:43:54;3.65;;;2.00;;
35540;SDS011;21650;48.840;9.162;2022-08-01T14:46:19;2.58;;;1.73;;
35540;SDS011;21650;48.840;9.162;2022-08-01T14:48:45;3.38;;;1.98;;
35540;SDS011;21650;48.840;9.162;2022-08-01T14:51:11;2.50;;;1.55;;
35540;SDS011;21650;48.840;9.162;2022-08-01T14:53:36;2.75;;;1.30;;
35540;SDS011;21650;48.840;9.162;2022-08-01T14:56:03;1.60;;;1.50;;
35540;SDS011;21650;48.840;9.162;2022-08-01T14:58:28;2.03;;;1.70;;
35540;SDS011;21650;48.840;9.162;2022-08-01T15:00:54;2.15;;;1.58;;
35540;SDS011;21650;48.840;9.162;2022-08-01T15:03:20;2.15;;;1.40;;
35540;SDS011;21650;48.840;9.162;2022-08-01T15:05:46;2.47;;;1.33;;
35540;SDS011;21650;48.840;9.162;2022-08-01T15:08:12;1.50;;;1.40;;
35540;SDS011;21650;48.840;9.162;2022-08-01T15:10:38;2.28;;;1.25;;
35540;SDS011;21650;48.840;9.162;2022-08-01T15:13:03;2.25;;;1.42;;
35540;SDS011;21650;48.840;9.162;2022-08-01T15:15:29;3.85;;;1.83;;
35540;SDS011;21650;48.840;9.162;2022-08-01T15:17:54;5.32;;;1.95;;
35540;SDS011;21650;48.840;9.162;2022-08-01T15:20:20;2.05;;;1.40;;
35540;SDS011;21650;48.840;9.162;2022-08-01T15:22:49;2.88;;;1.35;;
35540;SDS011;21650;48.840;9.162;2022-08-01T15:25:14;1.88;;;1.30;;
35540;SDS011;21650;48.840;9.162;2022-08-01T15:27:40;1.90;;;1.65;;
35540;SDS011;21650;48.840;9.162;2022-08-01T15:30:05;3.30;;;1.55;;
35540;SDS011;21650;48.840;9.162;2022-08-01T15:32:31;2.28;;;1.40;;